createdAt,value
2018-11-04T00:01:34.621Z,16.30
2018-11-04T00:04:08.179Z,14.95
2018-11-04T00:06:42.019Z,15.38
2018-11-04T00:09:16.315Z,15.08
2018-11-04T00:11:49.758Z,15.40
2018-11-04T00:14:23.287Z,15.72
2018-11-04T00:16:56.788Z,15.18
2018-11-04T00:19:30.282Z,15.48
2018-11-04T00:22:03.862Z,16.60
2018-11-04T00:24:37.248Z,15.58
2018-11-04T00:27:10.763Z,15.20
2018-11-04T00:29:44.549Z,17.55
2018-11-04T00:32:17.963Z,21.35
2018-11-04T00:34:51.691Z,18.82
2018-11-04T00:37:25.222Z,21.42
2018-11-04T00:39:58.960Z,18.65
2018-11-04T00:42:32.756Z,20.30
2018-11-04T00:45:07.797Z,20.82
2018-11-04T00:47:41.221Z,18.50
2018-11-04T00:50:15.644Z,18.25
2018-11-04T00:52:49.403Z,16.12
2018-11-04T00:55:22.953Z,15.70
2018-11-04T00:57:56.431Z,15.58
2018-11-04T01:00:30.052Z,14.93
2018-11-04T01:03:03.943Z,12.93
2018-11-04T01:05:37.431Z,12.07
2018-11-04T01:08:11.172Z,13.15
2018-11-04T01:10:44.555Z,13.13
2018-11-04T01:13:18.886Z,14.23
2018-11-04T01:15:52.335Z,12.93
2018-11-04T01:18:25.708Z,14.28
2018-11-04T01:20:59.327Z,14.73
2018-11-04T01:23:32.819Z,14.63
2018-11-04T01:26:06.495Z,15.10
2018-11-04T01:28:40.045Z,15.68
2018-11-04T01:31:13.441Z,15.88
2018-11-04T01:33:47.071Z,17.87
2018-11-04T01:36:20.744Z,16.37
2018-11-04T01:38:54.332Z,16.55
2018-11-04T01:41:27.812Z,16.00
2018-11-04T01:44:01.306Z,15.88
2018-11-04T01:46:35.114Z,16.85
2018-11-04T01:49:08.734Z,16.25
2018-11-04T01:51:42.274Z,14.98
2018-11-04T01:54:15.776Z,15.58
2018-11-04T01:56:49.256Z,15.08
2018-11-04T01:59:22.927Z,14.85
2018-11-04T02:01:56.429Z,14.78
2018-11-04T02:04:29.947Z,14.28
2018-11-04T02:07:03.434Z,17.60
2018-11-04T02:09:36.923Z,17.55
2018-11-04T02:12:10.552Z,16.55
2018-11-04T02:14:43.988Z,16.50
2018-11-04T02:17:17.551Z,16.97
2018-11-04T02:19:51.153Z,15.43
2018-11-04T02:22:24.619Z,15.55
2018-11-04T02:24:58.250Z,15.83
2018-11-04T02:27:31.618Z,15.95
2018-11-04T02:30:06.516Z,14.38
2018-11-04T02:32:40.302Z,15.72
2018-11-04T02:35:14.469Z,13.90
2018-11-04T02:37:47.926Z,13.05
2018-11-04T02:40:21.632Z,13.78
2018-11-04T02:42:55.290Z,13.38
2018-11-04T02:45:28.924Z,14.05
2018-11-04T02:48:02.503Z,13.15
2018-11-04T02:50:35.996Z,14.43
2018-11-04T02:53:09.371Z,13.13
2018-11-04T02:55:42.948Z,13.93
2018-11-04T02:58:16.801Z,14.28
2018-11-04T03:00:50.301Z,14.10
2018-11-04T03:03:23.757Z,14.03
2018-11-04T03:05:57.088Z,14.83
2018-11-04T03:08:30.591Z,14.45
2018-11-04T03:11:04.146Z,14.73
2018-11-04T03:13:37.767Z,14.90
2018-11-04T03:16:11.520Z,14.25
2018-11-04T03:18:45.039Z,13.35
2018-11-04T03:21:18.534Z,13.55
2018-11-04T03:23:52.071Z,13.28
2018-11-04T03:26:25.528Z,13.48
2018-11-04T03:28:58.931Z,12.50
2018-11-04T03:31:32.422Z,13.53
2018-11-04T03:34:05.899Z,13.43
2018-11-04T03:36:39.319Z,13.45
2018-11-04T03:39:13.024Z,12.93
2018-11-04T03:41:46.439Z,13.78
2018-11-04T03:44:20.010Z,13.00
2018-11-04T03:46:53.576Z,13.13
2018-11-04T03:49:26.950Z,13.22
2018-11-04T03:52:00.888Z,13.60
2018-11-04T03:54:34.298Z,13.53
2018-11-04T03:57:07.813Z,12.55
2018-11-04T03:59:41.354Z,13.00
2018-11-04T04:02:14.982Z,15.13
2018-11-04T04:04:48.685Z,15.10
2018-11-04T04:07:22.085Z,15.85
2018-11-04T04:09:55.656Z,14.05
2018-11-04T04:12:29.180Z,14.78
2018-11-04T04:15:02.749Z,15.35
2018-11-04T04:17:36.399Z,14.13
2018-11-04T04:20:09.878Z,14.23
2018-11-04T04:22:43.400Z,15.40
2018-11-04T04:25:16.897Z,13.95
2018-11-04T04:27:50.271Z,15.08
2018-11-04T04:30:23.914Z,15.18
2018-11-04T04:32:57.411Z,14.35
2018-11-04T04:35:30.869Z,14.38
2018-11-04T04:38:04.395Z,13.45
2018-11-04T04:40:37.991Z,15.23
2018-11-04T04:43:11.681Z,13.32
2018-11-04T04:45:45.296Z,14.25
2018-11-04T04:48:18.883Z,13.98
2018-11-04T04:50:52.374Z,13.90
2018-11-04T04:53:25.853Z,13.70
2018-11-04T04:55:59.645Z,13.43
2018-11-04T04:58:33.075Z,13.43
2018-11-04T05:01:06.494Z,14.33
2018-11-04T05:03:40.171Z,13.32
2018-11-04T05:06:13.779Z,14.10
2018-11-04T05:08:47.430Z,13.83
2018-11-04T05:11:20.975Z,13.03
2018-11-04T05:13:54.635Z,14.45
2018-11-04T05:16:28.175Z,13.83
2018-11-04T05:19:01.594Z,14.78
2018-11-04T05:21:42.296Z,14.50
2018-11-04T05:24:16.434Z,13.80
2018-11-04T05:26:50.055Z,13.83
2018-11-04T05:29:23.588Z,14.07
2018-11-04T05:31:57.080Z,14.35
2018-11-04T05:34:30.629Z,14.05
2018-11-04T05:37:04.503Z,13.62
2018-11-04T05:39:38.140Z,14.70
2018-11-04T05:42:11.741Z,13.60
2018-11-04T05:44:45.341Z,13.45
2018-11-04T05:47:18.863Z,14.23
2018-11-04T05:49:52.327Z,14.10
2018-11-04T05:52:25.964Z,13.08
2018-11-04T05:54:59.504Z,14.40
2018-11-04T05:57:33.134Z,13.48
2018-11-04T06:00:11.200Z,13.45
2018-11-04T06:02:44.771Z,13.83
2018-11-04T06:05:18.371Z,14.20
2018-11-04T06:07:51.792Z,12.65
2018-11-04T06:10:25.372Z,13.32
2018-11-04T06:12:58.845Z,13.08
2018-11-04T06:15:32.470Z,13.95
2018-11-04T06:18:06.040Z,13.43
2018-11-04T06:20:39.680Z,13.93
2018-11-04T06:23:13.419Z,13.98
2018-11-04T06:25:47.000Z,13.93
2018-11-04T06:28:20.479Z,14.23
2018-11-04T06:30:53.869Z,12.70
2018-11-04T06:33:27.362Z,13.58
2018-11-04T06:36:00.722Z,12.95
2018-11-04T06:38:34.350Z,13.50
2018-11-04T06:41:08.145Z,14.47
2018-11-04T06:43:41.503Z,13.55
2018-11-04T06:46:15.699Z,14.73
2018-11-04T06:48:49.184Z,13.93
2018-11-04T06:51:22.745Z,13.50
2018-11-04T06:53:56.380Z,14.07
2018-11-04T06:56:29.724Z,14.68
2018-11-04T06:59:03.152Z,13.90
2018-11-04T07:01:36.760Z,14.55
2018-11-04T07:04:21.715Z,14.65
2018-11-04T07:06:55.210Z,15.83
2018-11-04T07:09:28.683Z,15.00
2018-11-04T07:12:02.270Z,14.00
2018-11-04T07:14:35.892Z,14.43
2018-11-04T07:17:09.502Z,14.45
2018-11-04T07:19:43.333Z,13.30
2018-11-04T07:22:17.156Z,14.65
2018-11-04T07:24:50.722Z,14.13
2018-11-04T07:27:24.281Z,15.90
2018-11-04T07:32:33.442Z,14.63
2018-11-04T07:35:07.827Z,14.03
2018-11-04T07:37:41.375Z,14.70
2018-11-04T07:40:14.974Z,15.68
2018-11-04T07:42:48.356Z,15.45
2018-11-04T07:45:21.989Z,14.33
2018-11-04T07:47:55.542Z,15.45
2018-11-04T07:50:29.034Z,15.35
2018-11-04T07:53:02.554Z,16.70
2018-11-04T07:55:36.016Z,14.30
2018-11-04T07:58:09.662Z,15.30
2018-11-04T08:00:43.321Z,14.93
2018-11-04T08:03:17.025Z,18.90
2018-11-04T08:05:50.523Z,15.25
2018-11-04T08:08:24.260Z,16.35
2018-11-04T08:10:57.898Z,15.20
2018-11-04T08:13:31.467Z,15.20
2018-11-04T08:16:05.061Z,15.78
2018-11-04T08:18:38.552Z,15.75
2018-11-04T08:21:11.992Z,15.85
2018-11-04T08:23:45.548Z,16.65
2018-11-04T08:26:18.895Z,14.63
2018-11-04T08:28:52.384Z,16.23
2018-11-04T08:31:25.917Z,18.40
2018-11-04T08:33:59.440Z,16.70
2018-11-04T08:36:32.968Z,15.75
2018-11-04T08:39:07.379Z,17.42
2018-11-04T08:41:40.860Z,17.65
2018-11-04T08:44:14.626Z,18.45
2018-11-04T08:46:48.051Z,20.72
2018-11-04T08:49:21.782Z,19.20
2018-11-04T08:51:55.280Z,19.42
2018-11-04T08:54:28.758Z,19.57
2018-11-04T08:57:02.304Z,19.55
2018-11-04T08:59:35.948Z,19.80
2018-11-04T09:02:09.443Z,19.52
2018-11-04T09:04:43.020Z,20.35
2018-11-04T09:07:16.549Z,22.87
2018-11-04T09:09:50.380Z,22.48
2018-11-04T09:12:23.803Z,21.77
2018-11-04T09:14:57.343Z,22.40
2018-11-04T09:17:30.906Z,23.55
2018-11-04T09:20:06.359Z,25.12
2018-11-04T09:22:40.647Z,25.50
2018-11-04T09:25:14.334Z,25.50
2018-11-04T09:27:48.040Z,25.25
2018-11-04T09:30:21.509Z,25.90
2018-11-04T09:32:55.136Z,26.73
2018-11-04T09:35:29.127Z,26.02
2018-11-04T09:38:02.375Z,24.67
2018-11-04T09:40:35.913Z,26.77
2018-11-04T09:43:09.827Z,25.90
2018-11-04T09:45:43.483Z,24.90
2018-11-04T09:48:17.085Z,26.87
2018-11-04T09:50:50.723Z,26.00
2018-11-04T09:53:24.330Z,26.87
2018-11-04T09:55:57.948Z,25.45
2018-11-04T09:58:31.601Z,27.15
2018-11-04T10:01:05.633Z,28.20
2018-11-04T10:03:39.268Z,24.75
2018-11-04T10:06:12.841Z,26.65
2018-11-04T10:08:46.649Z,26.65
2018-11-04T10:11:20.398Z,24.57
2018-11-04T10:13:53.978Z,26.00
2018-11-04T10:16:27.704Z,25.90
2018-11-04T10:19:01.237Z,25.85
2018-11-04T10:21:34.963Z,26.60
2018-11-04T10:24:08.666Z,25.77
2018-11-04T10:29:22.540Z,25.35
2018-11-04T10:31:56.329Z,24.57
2018-11-04T10:34:29.908Z,26.02
2018-11-04T10:37:03.521Z,23.98
2018-11-04T10:39:36.922Z,26.00
2018-11-04T10:42:10.620Z,24.95
2018-11-04T10:44:44.434Z,24.95
2018-11-04T10:47:18.336Z,24.27
2018-11-04T10:49:52.215Z,24.98
2018-11-04T10:52:26.277Z,25.92
2018-11-04T10:54:59.935Z,24.67
2018-11-04T10:57:33.636Z,26.17
2018-11-04T11:00:15.192Z,26.25
2018-11-04T11:02:48.765Z,25.25
2018-11-04T11:05:22.255Z,24.82
2018-11-04T11:07:55.789Z,26.10
2018-11-04T11:10:29.325Z,29.63
2018-11-04T11:13:02.749Z,25.27
2018-11-04T11:15:36.419Z,26.82
2018-11-04T11:18:09.949Z,26.40
2018-11-04T11:20:43.395Z,24.02
2018-11-04T11:23:17.110Z,26.00
2018-11-04T11:25:50.485Z,24.85
2018-11-04T11:28:24.231Z,25.43
2018-11-04T11:30:57.650Z,24.90
2018-11-04T11:33:30.975Z,25.82
2018-11-04T11:36:04.965Z,25.23
2018-11-04T11:38:38.445Z,24.65
2018-11-04T11:41:11.935Z,25.60
2018-11-04T11:43:45.406Z,25.55
2018-11-04T11:46:18.957Z,26.42
2018-11-04T11:48:52.420Z,26.40
2018-11-04T11:51:25.997Z,25.35
2018-11-04T11:53:59.747Z,28.07
2018-11-04T11:56:33.243Z,26.02
2018-11-04T11:59:06.717Z,26.35
2018-11-04T12:01:40.293Z,25.57
2018-11-04T12:04:13.777Z,26.40
2018-11-04T12:06:47.368Z,27.27
2018-11-04T12:09:20.865Z,27.32
2018-11-04T12:11:54.302Z,26.73
2018-11-04T12:14:27.751Z,26.25
2018-11-04T12:17:01.479Z,25.68
2018-11-04T12:19:34.909Z,24.60
2018-11-04T12:22:08.331Z,24.57
2018-11-04T12:24:42.602Z,24.65
2018-11-04T12:27:16.201Z,26.40
2018-11-04T12:29:49.754Z,24.77
2018-11-04T12:32:23.324Z,25.48
2018-11-04T12:34:56.890Z,24.90
2018-11-04T12:37:30.384Z,25.85
2018-11-04T12:40:05.596Z,26.82
2018-11-04T12:42:39.193Z,24.67
2018-11-04T12:45:13.547Z,24.63
2018-11-04T12:47:47.047Z,25.88
2018-11-04T12:50:20.569Z,23.80
2018-11-04T12:52:54.074Z,26.35
2018-11-04T12:55:27.771Z,25.65
2018-11-04T12:58:01.208Z,26.00
2018-11-04T13:00:34.611Z,24.87
2018-11-04T13:03:07.962Z,24.07
2018-11-04T13:05:41.446Z,25.80
2018-11-04T13:08:15.092Z,25.43
2018-11-04T13:10:48.621Z,25.60
2018-11-04T13:13:22.197Z,25.97
2018-11-04T13:15:55.617Z,25.05
2018-11-04T13:18:29.102Z,25.45
2018-11-04T13:21:02.708Z,25.45
2018-11-04T13:23:36.280Z,25.43
2018-11-04T13:26:09.755Z,24.75
2018-11-04T13:28:43.348Z,25.70
2018-11-04T13:31:16.877Z,24.20
2018-11-04T13:33:50.336Z,25.77
2018-11-04T13:36:23.920Z,24.82
2018-11-04T13:38:57.562Z,25.02
2018-11-04T13:41:31.148Z,25.37
2018-11-04T13:44:04.959Z,25.10
2018-11-04T13:46:38.540Z,25.27
2018-11-04T13:49:12.748Z,26.07
2018-11-04T13:51:46.374Z,25.37
2018-11-04T13:54:19.945Z,25.75
2018-11-04T13:56:53.471Z,25.55
2018-11-04T13:59:26.899Z,26.75
2018-11-04T14:02:00.420Z,24.23
2018-11-04T14:04:33.994Z,24.85
2018-11-04T14:07:07.852Z,26.05
2018-11-04T14:09:41.384Z,25.10
2018-11-04T14:12:15.034Z,25.30
2018-11-04T14:14:48.523Z,27.82
2018-11-04T14:17:22.036Z,26.40
2018-11-04T14:19:55.821Z,24.98
2018-11-04T14:22:29.120Z,27.05
2018-11-04T14:25:02.537Z,25.17
2018-11-04T14:27:36.290Z,24.90
2018-11-04T14:30:11.763Z,26.97
2018-11-04T14:32:45.184Z,26.07
2018-11-04T14:35:18.758Z,27.20
2018-11-04T14:37:52.359Z,27.15
2018-11-04T14:40:25.761Z,26.12
2018-11-04T14:42:59.326Z,25.45
2018-11-04T14:45:32.809Z,29.67
2018-11-04T14:48:06.283Z,27.80
2018-11-04T14:50:39.759Z,25.32
2018-11-04T14:53:13.322Z,26.87
2018-11-04T14:55:46.852Z,26.87
2018-11-04T14:58:20.475Z,26.07
2018-11-04T15:00:54.206Z,27.42
2018-11-04T15:03:27.753Z,26.42
2018-11-04T15:06:01.375Z,27.58
2018-11-04T15:08:35.306Z,24.77
2018-11-04T15:11:09.004Z,26.85
2018-11-04T15:13:42.695Z,26.30
2018-11-04T15:16:16.799Z,26.40
2018-11-04T15:18:50.439Z,27.22
2018-11-04T15:21:23.975Z,28.05
2018-11-04T15:23:57.646Z,27.50
2018-11-04T15:26:31.200Z,26.65
2018-11-04T15:29:04.946Z,27.90
2018-11-04T15:31:38.540Z,27.07
2018-11-04T15:34:12.150Z,29.00
2018-11-04T15:36:45.615Z,30.05
2018-11-04T15:39:19.140Z,27.27
2018-11-04T15:41:52.625Z,28.70
2018-11-04T15:44:26.392Z,27.98
2018-11-04T15:47:00.037Z,30.10
2018-11-04T15:49:33.739Z,28.85
2018-11-04T15:52:07.121Z,27.73
2018-11-04T15:54:40.844Z,28.12
2018-11-04T15:57:16.267Z,29.55
2018-11-04T15:59:49.568Z,30.08
2018-11-04T16:02:23.171Z,28.23
2018-11-04T16:04:56.814Z,27.87
2018-11-04T16:07:30.309Z,28.45
2018-11-04T16:10:04.763Z,28.67
2018-11-04T16:12:38.605Z,29.15
2018-11-04T16:15:13.140Z,29.52
2018-11-04T16:17:46.824Z,26.70
2018-11-04T16:20:20.255Z,28.17
2018-11-04T16:22:53.652Z,28.47
2018-11-04T16:25:27.345Z,26.02
2018-11-04T16:28:01.017Z,28.17
2018-11-04T16:30:34.601Z,28.05
2018-11-04T16:33:08.315Z,27.30
2018-11-04T16:35:41.934Z,28.25
2018-11-04T16:38:15.706Z,27.35
2018-11-04T16:40:49.282Z,27.35
2018-11-04T16:43:22.989Z,25.52
2018-11-04T16:45:56.560Z,27.55
2018-11-04T16:48:30.056Z,26.05
2018-11-04T16:51:03.685Z,28.20
2018-11-04T16:53:37.183Z,27.60
2018-11-04T16:56:10.826Z,27.35
2018-11-04T16:58:44.240Z,28.32
2018-11-04T17:01:17.909Z,27.52
2018-11-04T17:03:51.408Z,29.40
2018-11-04T17:06:25.222Z,28.02
2018-11-04T17:08:58.785Z,26.25
2018-11-04T17:11:32.350Z,28.90
2018-11-04T17:14:06.501Z,30.35
2018-11-04T17:16:40.172Z,28.67
2018-11-04T17:19:13.705Z,29.02
2018-11-04T17:21:47.280Z,28.92
2018-11-04T17:24:20.879Z,31.00
2018-11-04T17:26:54.581Z,29.72
2018-11-04T17:29:28.010Z,30.23
2018-11-04T17:32:01.908Z,30.77
2018-11-04T17:34:35.597Z,31.90
2018-11-04T17:37:09.717Z,30.70
2018-11-04T17:39:43.260Z,32.23
2018-11-04T17:42:16.860Z,31.42
2018-11-04T17:44:50.497Z,32.08
2018-11-04T17:47:24.195Z,33.98
2018-11-04T17:49:57.896Z,32.83
2018-11-04T17:52:31.654Z,32.48
2018-11-04T17:55:05.380Z,33.80
2018-11-04T17:57:39.229Z,33.18
2018-11-04T18:00:14.267Z,32.05
2018-11-04T18:02:47.808Z,32.88
2018-11-04T18:05:21.528Z,33.58
2018-11-04T18:07:55.250Z,35.48
2018-11-04T18:10:28.769Z,35.15
2018-11-04T18:13:02.388Z,34.58
2018-11-04T18:15:35.787Z,34.92
2018-11-04T18:18:09.320Z,34.10
2018-11-04T18:20:42.940Z,33.78
2018-11-04T18:23:16.588Z,35.80
2018-11-04T18:25:50.287Z,36.65
2018-11-04T18:28:23.779Z,37.33
2018-11-04T18:30:57.238Z,34.60
2018-11-04T18:33:30.765Z,35.23
2018-11-04T18:36:04.557Z,37.40
2018-11-04T18:38:38.463Z,34.38
2018-11-04T18:41:12.184Z,36.30
2018-11-04T18:43:45.775Z,34.65
2018-11-04T18:48:55.140Z,36.70
2018-11-04T18:51:28.772Z,34.73
2018-11-04T18:54:02.376Z,34.50
2018-11-04T18:56:35.765Z,34.20
2018-11-04T18:59:09.463Z,34.73
2018-11-04T19:01:43.146Z,34.60
2018-11-04T19:04:16.602Z,32.80
2018-11-04T19:06:50.062Z,35.08
2018-11-04T19:10:26.965Z,34.15
2018-11-04T19:13:00.415Z,34.03
2018-11-04T19:15:34.121Z,34.33
2018-11-04T19:18:07.851Z,32.25
2018-11-04T19:20:41.596Z,33.30
2018-11-04T19:23:21.755Z,34.85
2018-11-04T19:25:55.113Z,38.50
2018-11-04T19:28:28.865Z,35.08
2018-11-04T19:31:02.512Z,36.75
2018-11-04T19:33:36.078Z,34.55
2018-11-04T19:36:09.692Z,33.80
2018-11-04T19:38:43.246Z,33.15
2018-11-04T19:41:16.704Z,33.70
2018-11-04T19:43:50.345Z,35.03
2018-11-04T19:46:24.452Z,34.00
2018-11-04T19:48:57.859Z,33.42
2018-11-04T19:51:31.166Z,34.92
2018-11-04T19:54:05.574Z,35.75
2018-11-04T19:56:40.047Z,34.75
2018-11-04T19:59:14.216Z,36.33
2018-11-04T20:01:47.934Z,35.45
2018-11-04T20:04:21.388Z,38.40
2018-11-04T20:06:54.965Z,37.03
2018-11-04T20:09:28.412Z,35.65
2018-11-04T20:12:01.852Z,38.02
2018-11-04T20:14:35.318Z,36.63
2018-11-04T20:17:09.289Z,37.20
2018-11-04T20:19:49.023Z,38.63
2018-11-04T20:22:23.321Z,35.78
2018-11-04T20:25:02.959Z,35.95
2018-11-04T20:27:36.657Z,37.80
2018-11-04T20:30:11.437Z,38.28
2018-11-04T20:32:50.750Z,38.85
2018-11-04T20:35:25.783Z,38.30
2018-11-04T20:37:59.458Z,38.42
2018-11-04T20:40:38.648Z,43.25
2018-11-04T20:43:12.064Z,38.83
2018-11-04T20:45:45.661Z,39.95
2018-11-04T20:48:24.987Z,39.15
2018-11-04T20:51:03.476Z,39.18
2018-11-04T20:53:36.969Z,37.58
2018-11-04T20:56:16.306Z,36.65
2018-11-04T20:58:49.928Z,38.88
2018-11-04T21:01:23.655Z,37.38
2018-11-04T21:03:57.373Z,37.75
2018-11-04T21:06:30.812Z,40.23
2018-11-04T21:09:07.137Z,40.30
2018-11-04T21:11:40.703Z,38.75
2018-11-04T21:14:14.165Z,40.03
2018-11-04T21:16:48.011Z,39.83
2018-11-04T21:19:23.640Z,38.28
2018-11-04T21:21:57.993Z,40.25
2018-11-04T21:24:31.644Z,37.78
2018-11-04T21:27:05.480Z,39.67
2018-11-04T21:29:39.262Z,40.98
2018-11-04T21:32:12.707Z,39.18
2018-11-04T21:34:46.567Z,41.95
2018-11-04T21:37:20.085Z,41.23
2018-11-04T21:39:54.020Z,38.00
2018-11-04T21:42:27.731Z,39.58
2018-11-04T21:45:01.386Z,42.98
2018-11-04T21:47:42.684Z,38.83
2018-11-04T21:50:16.452Z,38.15
2018-11-04T21:52:50.116Z,39.90
2018-11-04T21:55:23.729Z,41.60
2018-11-04T21:57:57.314Z,39.80
2018-11-04T22:00:30.903Z,39.70
2018-11-04T22:03:04.489Z,36.75
2018-11-04T22:05:37.941Z,39.27
2018-11-04T22:08:11.512Z,37.48
2018-11-04T22:10:46.204Z,39.55
2018-11-04T22:13:19.712Z,37.73
2018-11-04T22:15:53.427Z,39.15
2018-11-04T22:18:27.197Z,39.27
2018-11-04T22:21:00.790Z,39.23
2018-11-04T22:23:34.200Z,38.35
2018-11-04T22:26:08.043Z,36.60
2018-11-04T22:28:41.706Z,39.15
2018-11-04T22:31:15.779Z,39.92
2018-11-04T22:33:49.411Z,37.73
2018-11-04T22:36:24.016Z,39.10
2018-11-04T22:38:57.560Z,39.05
2018-11-04T22:41:31.211Z,39.05
2018-11-04T22:44:05.081Z,40.03
2018-11-04T22:46:39.235Z,40.28
2018-11-04T22:49:12.830Z,39.65
2018-11-04T22:51:46.330Z,41.13
2018-11-04T22:54:20.451Z,39.90
2018-11-04T22:56:54.043Z,40.98
2018-11-04T22:59:28.363Z,39.15
2018-11-04T23:02:02.102Z,40.70
2018-11-04T23:04:41.502Z,38.88
2018-11-04T23:07:15.103Z,39.55
2018-11-04T23:09:48.923Z,40.98
2018-11-04T23:12:22.475Z,39.15
2018-11-04T23:14:56.048Z,41.28
2018-11-04T23:17:29.658Z,39.00
2018-11-04T23:20:04.496Z,38.08
2018-11-04T23:22:38.036Z,38.17
2018-11-04T23:25:12.602Z,42.40
2018-11-04T23:27:46.223Z,37.75
2018-11-04T23:30:19.845Z,39.48
2018-11-04T23:32:53.502Z,39.50
2018-11-04T23:35:27.176Z,38.78
2018-11-04T23:38:00.570Z,40.58
2018-11-04T23:40:34.118Z,36.60
2018-11-04T23:43:07.841Z,38.98
2018-11-04T23:45:41.517Z,38.53
2018-11-04T23:48:15.047Z,40.35
2018-11-04T23:50:48.727Z,39.42
2018-11-04T23:53:22.379Z,38.33
2018-11-04T23:58:36.336Z,39.60
